Terminal Aerodrome Forecast
Issued by NWS

Current Version | Previous Version | Graphics & Text | Print | Product List | Glossary On
Versions: 1 2 3 4 5 6 7 8 9 10 11 12 13 14 15 16 17 18 19 20 21 22 23 24
000
FTUS41 KILN 191720
TAFLUK
TAF
KLUK 191720Z 1918/2018 25005KT P6SM OVC012
     FM192100 24004KT P6SM FEW015
     FM200200 00000KT P6SM BKN015
     FM200400 00000KT 5SM BR OVC015
     FM200900 00000KT 1SM BR OVC015
     FM201600 13004KT P6SM SCT015=

USA.gov is the U.S. government's official web portal to all federal, state and local government web resources and services.